createdAt,value
2024-02-28T00:02:47.842Z,85.10
2024-02-28T00:05:53.424Z,85.10
2024-02-28T00:09:00.892Z,85.10
2024-02-28T00:12:06.783Z,85.10
2024-02-28T00:15:14.575Z,85.10
2024-02-28T00:18:23.224Z,85.20
2024-02-28T00:21:30.759Z,85.20
2024-02-28T00:24:36.305Z,85.20
2024-02-28T00:27:43.916Z,85.10
2024-02-28T00:30:49.547Z,85.10
2024-02-28T00:33:59.736Z,85.00
2024-02-28T00:37:05.274Z,85.00
2024-02-28T00:40:14.112Z,85.00
2024-02-28T00:43:19.610Z,85.00
2024-02-28T00:46:27.149Z,85.10
2024-02-28T00:49:36.120Z,85.00
2024-02-28T00:52:43.915Z,85.10
2024-02-28T00:55:49.469Z,85.10
2024-02-28T00:58:56.946Z,85.10
2024-02-28T01:02:02.449Z,85.70
2024-02-28T01:05:12.928Z,85.20
2024-02-28T01:08:18.476Z,85.20
2024-02-28T01:11:25.988Z,85.30
2024-02-28T01:14:31.593Z,85.20
2024-02-28T01:17:39.127Z,85.30
2024-02-28T01:20:47.280Z,85.10
2024-02-28T01:23:55.534Z,85.20
2024-02-28T01:27:01.032Z,85.20
2024-02-28T01:30:10.360Z,85.30
2024-02-28T01:33:16.639Z,85.30
2024-02-28T01:36:27.735Z,85.30
2024-02-28T01:39:33.493Z,85.30
2024-02-28T01:42:41.086Z,85.30
2024-02-28T01:45:48.919Z,85.40
2024-02-28T01:48:57.058Z,85.30
2024-02-28T01:52:05.578Z,85.30
2024-02-28T01:55:13.437Z,85.30
2024-02-28T01:58:19.044Z,85.30
2024-02-28T02:01:26.651Z,85.40
2024-02-28T02:04:33.342Z,85.40
2024-02-28T02:07:44.019Z,85.40
2024-02-28T02:10:49.569Z,85.40
2024-02-28T02:13:57.734Z,85.40
2024-02-28T02:17:03.479Z,85.40
2024-02-28T02:20:15.725Z,85.40
2024-02-28T02:23:23.874Z,85.50
2024-02-28T02:26:31.375Z,85.50
2024-02-28T02:29:36.890Z,85.50
2024-02-28T02:32:44.405Z,85.50
2024-02-28T02:35:49.990Z,85.50
2024-02-28T02:39:00.276Z,85.50
2024-02-28T02:42:05.724Z,85.60
2024-02-28T02:45:13.847Z,85.60
2024-02-28T02:48:19.652Z,85.60
2024-02-28T02:51:27.366Z,85.60
2024-02-28T02:54:35.542Z,85.60
2024-02-28T02:57:45.214Z,85.60
2024-02-28T03:00:51.292Z,85.60
2024-02-28T03:03:58.946Z,85.60
2024-02-28T03:07:04.472Z,85.70
2024-02-28T03:10:14.582Z,85.80
2024-02-28T03:13:20.078Z,85.70
2024-02-28T03:16:27.560Z,85.80
2024-02-28T03:19:33.040Z,85.90
2024-02-28T03:22:40.488Z,86.40
2024-02-28T03:25:48.755Z,85.80
2024-02-28T03:28:56.247Z,85.80
2024-02-28T03:32:03.034Z,85.80
2024-02-28T03:35:11.456Z,85.80
2024-02-28T03:38:16.958Z,85.80
2024-02-28T03:41:27.073Z,85.80
2024-02-28T03:44:32.518Z,85.80
2024-02-28T03:47:39.957Z,85.90
2024-02-28T03:50:45.526Z,85.90
2024-02-28T03:53:53.105Z,85.80
2024-02-28T03:57:01.286Z,85.90
2024-02-28T04:00:10.522Z,85.90
2024-02-28T04:03:18.864Z,85.90
2024-02-28T04:06:26.439Z,85.90
2024-02-28T04:09:31.958Z,86.00
2024-02-28T04:12:42.078Z,86.00
2024-02-28T04:15:49.524Z,86.00
2024-02-28T04:18:57.088Z,86.00
2024-02-28T04:22:02.581Z,85.90
2024-02-28T04:25:12.115Z,86.00
2024-02-28T04:28:20.196Z,86.00
2024-02-28T04:31:27.774Z,85.90
2024-02-28T04:34:33.220Z,85.90
2024-02-28T04:37:40.688Z,86.00
2024-02-28T04:40:46.454Z,86.00
2024-02-28T04:43:56.469Z,86.00
2024-02-28T04:47:02.004Z,86.00
2024-02-28T04:50:10.427Z,86.00
2024-02-28T04:53:15.921Z,86.00
2024-02-28T04:56:23.409Z,86.10
2024-02-28T04:59:31.701Z,86.10
2024-02-28T05:02:39.255Z,86.10
2024-02-28T05:05:44.820Z,86.20
2024-02-28T05:08:52.233Z,86.10
2024-02-28T05:11:57.714Z,86.10
2024-02-28T05:15:08.957Z,86.10
2024-02-28T05:18:14.544Z,86.20
2024-02-28T05:21:22.057Z,86.10
2024-02-28T05:24:27.549Z,86.10
2024-02-28T05:27:35.032Z,86.10
2024-02-28T05:30:46.016Z,86.10
2024-02-28T05:33:55.937Z,86.10
2024-02-28T05:37:02.330Z,86.20
2024-02-28T05:40:14.080Z,86.20
2024-02-28T05:43:19.595Z,86.10
2024-02-28T05:46:29.793Z,86.10
2024-02-28T05:49:35.246Z,86.10
2024-02-28T05:52:45.198Z,86.10
2024-02-28T05:55:50.676Z,86.10
2024-02-28T05:58:58.178Z,86.20
2024-02-28T06:02:06.210Z,86.20
2024-02-28T06:05:13.754Z,86.20
2024-02-28T06:08:19.423Z,86.20
2024-02-28T06:11:26.958Z,86.20
2024-02-28T06:14:32.538Z,86.30
2024-02-28T06:17:42.847Z,86.20
2024-02-28T06:20:48.405Z,86.30
2024-02-28T06:23:55.876Z,86.30
2024-02-28T06:27:01.413Z,86.30
2024-02-28T06:30:10.991Z,86.30
2024-02-28T06:33:20.054Z,86.20
2024-02-28T06:36:27.853Z,86.20
2024-02-28T06:39:33.354Z,86.90
2024-02-28T06:42:41.154Z,86.30
2024-02-28T06:45:46.913Z,86.40
2024-02-28T06:48:59.964Z,86.30
2024-02-28T06:52:05.494Z,86.30
2024-02-28T06:55:15.755Z,86.30
2024-02-28T06:58:21.301Z,86.30
2024-02-28T07:01:28.891Z,87.00
2024-02-28T07:04:37.942Z,86.40
2024-02-28T07:07:45.466Z,86.40
2024-02-28T07:10:55.143Z,86.40
2024-02-28T07:14:03.619Z,86.40
2024-02-28T07:17:09.148Z,86.50
2024-02-28T07:20:19.491Z,86.50
2024-02-28T07:23:25.056Z,86.50
2024-02-28T07:26:32.559Z,86.60
2024-02-28T07:29:38.173Z,86.60
2024-02-28T07:32:45.790Z,86.60
2024-02-28T07:35:56.402Z,86.70
2024-02-28T07:39:04.176Z,86.70
2024-02-28T07:42:09.823Z,86.70
2024-02-28T07:45:17.636Z,86.70
2024-02-28T07:48:23.242Z,86.70
2024-02-28T07:51:33.480Z,86.80
2024-02-28T07:54:39.236Z,86.90
2024-02-28T07:57:46.799Z,86.90
2024-02-28T08:00:53.872Z,86.90
2024-02-28T08:04:01.647Z,87.00
2024-02-28T08:07:09.960Z,86.90
2024-02-28T08:10:17.383Z,87.00
2024-02-28T08:13:23.377Z,87.10
2024-02-28T08:16:32.555Z,87.10
2024-02-28T08:19:38.854Z,87.20
2024-02-28T08:22:48.955Z,87.20
2024-02-28T08:25:54.466Z,87.20
2024-02-28T08:29:01.947Z,87.30
2024-02-28T08:32:08.148Z,87.40
2024-02-28T08:35:15.689Z,87.50
2024-02-28T08:38:23.808Z,87.40
2024-02-28T08:41:31.282Z,87.60
2024-02-28T08:44:36.917Z,87.60
2024-02-28T08:47:46.100Z,87.50
2024-02-28T08:50:51.812Z,87.60
2024-02-28T08:54:01.926Z,87.50
2024-02-28T08:57:07.673Z,87.60
2024-02-28T09:00:21.169Z,87.60
2024-02-28T09:03:26.667Z,87.50
2024-02-28T09:06:34.240Z,87.50
2024-02-28T09:09:46.051Z,87.60
2024-02-28T09:12:53.811Z,87.60
2024-02-28T09:15:59.428Z,87.70
2024-02-28T09:19:07.865Z,87.70
2024-02-28T09:22:13.324Z,87.70
2024-02-28T09:25:27.000Z,87.80
2024-02-28T09:28:33.489Z,87.80
2024-02-28T09:31:41.107Z,87.70
2024-02-28T09:34:46.607Z,87.70
2024-02-28T09:37:54.133Z,87.80
2024-02-28T09:41:02.256Z,87.80
2024-02-28T09:44:10.965Z,87.80
2024-02-28T09:47:17.081Z,87.70
2024-02-28T09:50:25.766Z,87.70
2024-02-28T09:53:31.741Z,87.70
2024-02-28T09:56:41.904Z,87.70
2024-02-28T09:59:54.261Z,87.60
2024-02-28T10:03:05.462Z,87.70
2024-02-28T10:06:12.719Z,87.60
2024-02-28T10:09:20.690Z,87.70
2024-02-28T10:12:29.282Z,87.60
2024-02-28T10:15:36.898Z,87.60
2024-02-28T10:18:42.874Z,88.20
2024-02-28T10:21:50.844Z,87.60
2024-02-28T10:25:01.429Z,87.60
2024-02-28T10:28:11.725Z,87.60
2024-02-28T10:31:18.396Z,87.60
2024-02-28T10:34:26.003Z,87.60
2024-02-28T10:37:34.453Z,87.60
2024-02-28T10:40:42.145Z,87.50
2024-02-28T10:43:52.445Z,87.40
2024-02-28T10:47:00.296Z,87.50
2024-02-28T10:50:05.837Z,87.50
2024-02-28T10:53:19.006Z,87.60
2024-02-28T10:56:24.428Z,87.40
2024-02-28T10:59:36.769Z,87.40
2024-02-28T11:02:44.700Z,87.50
2024-02-28T11:05:52.239Z,87.40
2024-02-28T11:08:58.115Z,87.30
2024-02-28T11:12:08.788Z,87.30
2024-02-28T11:15:21.668Z,87.30
2024-02-28T11:18:29.242Z,87.30
2024-02-28T11:21:39.298Z,87.30
2024-02-28T11:24:48.889Z,87.20
2024-02-28T11:27:54.638Z,87.30
2024-02-28T11:31:04.957Z,87.20
2024-02-28T11:34:11.173Z,87.20
2024-02-28T11:37:18.823Z,87.20
2024-02-28T11:40:24.284Z,87.20
2024-02-28T11:43:36.628Z,87.20
2024-02-28T11:46:53.367Z,87.20
2024-02-28T11:50:04.045Z,87.20
2024-02-28T11:53:10.866Z,87.10
2024-02-28T11:56:22.389Z,87.20
2024-02-28T11:59:27.890Z,87.20
2024-02-28T12:02:38.259Z,87.40
2024-02-28T12:05:48.132Z,87.30
2024-02-28T12:08:56.129Z,87.30
2024-02-28T12:12:05.217Z,87.90
2024-02-28T12:15:14.079Z,87.30
2024-02-28T12:18:22.224Z,87.30
2024-02-28T12:21:29.942Z,87.30
2024-02-28T12:24:35.445Z,87.40
2024-02-28T12:27:43.255Z,87.40
2024-02-28T12:30:48.796Z,87.40
2024-02-28T12:33:59.189Z,87.40
2024-02-28T12:37:05.608Z,87.40
2024-02-28T12:40:15.391Z,87.50
2024-02-28T12:43:20.907Z,87.50
2024-02-28T12:46:28.444Z,87.50
2024-02-28T12:49:36.590Z,87.50
2024-02-28T12:52:44.213Z,87.50
2024-02-28T12:55:49.701Z,87.40
2024-02-28T12:58:57.315Z,87.40
2024-02-28T13:02:03.085Z,87.40
2024-02-28T13:05:15.459Z,87.40
2024-02-28T13:08:20.985Z,87.40
2024-02-28T13:11:29.149Z,87.30
2024-02-28T13:14:35.005Z,87.40
2024-02-28T13:17:42.929Z,87.20
2024-02-28T13:20:51.264Z,87.20
2024-02-28T13:23:58.842Z,87.20
2024-02-28T13:27:04.318Z,87.20
2024-02-28T13:30:12.914Z,87.20
2024-02-28T13:33:18.568Z,87.10
2024-02-28T13:36:28.778Z,87.10
2024-02-28T13:39:35.967Z,87.00
2024-02-28T13:42:43.550Z,87.00
2024-02-28T13:45:52.658Z,86.90
2024-02-28T13:49:00.287Z,86.80
2024-02-28T13:52:09.457Z,86.80
2024-02-28T13:55:17.155Z,86.70
2024-02-28T13:58:22.887Z,86.60
2024-02-28T14:01:30.886Z,86.60
2024-02-28T14:04:36.525Z,86.60
2024-02-28T14:07:46.655Z,86.50
2024-02-28T14:10:52.325Z,87.10
2024-02-28T14:13:59.959Z,86.40
2024-02-28T14:17:05.578Z,86.40
2024-02-28T14:20:14.547Z,86.90
2024-02-28T14:23:22.631Z,86.40
2024-02-28T14:26:30.162Z,86.30
2024-02-28T14:29:35.643Z,86.20
2024-02-28T14:32:44.855Z,86.10
2024-02-28T14:35:50.514Z,86.20
2024-02-28T14:39:00.625Z,86.20
2024-02-28T14:42:06.156Z,86.10
2024-02-28T14:45:15.884Z,86.10
2024-02-28T14:48:21.399Z,86.10
2024-02-28T14:51:31.343Z,86.10
2024-02-28T14:54:40.178Z,86.10
2024-02-28T14:57:47.679Z,86.00
2024-02-28T15:00:53.337Z,86.00
2024-02-28T15:04:00.948Z,86.00
2024-02-28T15:07:06.808Z,86.00
2024-02-28T15:10:17.512Z,85.90
2024-02-28T15:13:24.887Z,85.90
2024-02-28T15:16:32.498Z,85.90
2024-02-28T15:19:38.029Z,85.90
2024-02-28T15:22:47.065Z,85.90
2024-02-28T15:25:56.687Z,85.80
2024-02-28T15:29:04.178Z,85.80
2024-02-28T15:32:10.325Z,85.80
2024-02-28T15:35:17.859Z,85.80
2024-02-28T15:38:23.373Z,85.80
2024-02-28T15:41:33.488Z,85.80
2024-02-28T15:44:38.994Z,85.70
2024-02-28T15:47:47.142Z,85.70
2024-02-28T15:50:54.320Z,85.70
2024-02-28T15:54:01.990Z,85.70
2024-02-28T15:57:11.112Z,85.70
2024-02-28T16:00:19.895Z,85.70
2024-02-28T16:03:25.482Z,85.60
2024-02-28T16:06:39.459Z,85.60
2024-02-28T16:09:46.491Z,85.60
2024-02-28T16:12:56.707Z,85.60
2024-02-28T16:16:02.436Z,85.60
2024-02-28T16:19:15.884Z,85.70
2024-02-28T16:22:28.457Z,85.60
2024-02-28T16:25:35.999Z,85.60
2024-02-28T16:28:44.166Z,85.60
2024-02-28T16:31:52.251Z,85.50
2024-02-28T16:34:57.725Z,85.50
2024-02-28T16:38:05.176Z,85.60
2024-02-28T16:41:10.713Z,85.50
2024-02-28T16:44:20.810Z,85.60
2024-02-28T16:47:26.279Z,85.50
2024-02-28T16:50:33.802Z,85.50
2024-02-28T16:53:39.283Z,85.50
2024-02-28T16:56:46.853Z,85.50
2024-02-28T16:59:54.909Z,85.50
2024-02-28T17:03:02.368Z,85.30
2024-02-28T17:06:08.761Z,86.00
2024-02-28T17:09:16.195Z,85.30
2024-02-28T17:12:21.728Z,85.30
2024-02-28T17:15:31.944Z,85.30
2024-02-28T17:18:37.545Z,85.30
2024-02-28T17:21:45.201Z,85.30
2024-02-28T17:24:51.400Z,85.30
2024-02-28T17:27:59.000Z,85.30
2024-02-28T17:31:07.667Z,85.30
2024-02-28T17:34:15.601Z,85.20
2024-02-28T17:37:22.951Z,85.30
2024-02-28T17:40:30.826Z,85.20
2024-02-28T17:43:36.991Z,85.20
2024-02-28T17:46:47.287Z,85.30
2024-02-28T17:49:52.886Z,85.20
2024-02-28T17:53:00.357Z,85.10
2024-02-28T17:56:07.152Z,85.20
2024-02-28T17:59:14.607Z,85.20
2024-02-28T18:02:25.752Z,85.10
2024-02-28T18:05:33.175Z,85.20
2024-02-28T18:08:38.753Z,85.30
2024-02-28T18:11:46.355Z,85.20
2024-02-28T18:14:51.905Z,85.20
2024-02-28T18:18:02.032Z,85.20
2024-02-28T18:21:08.014Z,85.10
2024-02-28T18:24:15.569Z,85.10
2024-02-28T18:27:21.065Z,85.10
2024-02-28T18:30:28.623Z,85.20
2024-02-28T18:33:36.823Z,85.20
2024-02-28T18:36:44.401Z,85.10
2024-02-28T18:39:49.943Z,85.10
2024-02-28T18:42:57.468Z,85.20
2024-02-28T18:46:05.032Z,85.10
2024-02-28T18:49:15.278Z,85.10
2024-02-28T18:52:20.814Z,85.20
2024-02-28T18:55:28.258Z,85.20
2024-02-28T18:58:34.171Z,85.20
2024-02-28T19:01:42.813Z,85.20
2024-02-28T19:04:50.911Z,85.20
2024-02-28T19:07:58.404Z,85.20
2024-02-28T19:11:03.951Z,85.20
2024-02-28T19:14:11.576Z,85.10
2024-02-28T19:17:17.615Z,85.10
2024-02-28T19:20:27.799Z,85.20
2024-02-28T19:23:33.331Z,85.20
2024-02-28T19:26:40.802Z,85.20
2024-02-28T19:29:47.053Z,85.30
2024-02-28T19:32:57.186Z,85.20
2024-02-28T19:36:05.339Z,85.20
2024-02-28T19:39:12.939Z,85.10
2024-02-28T19:42:18.428Z,85.10
2024-02-28T19:45:26.122Z,85.10
2024-02-28T19:48:31.789Z,85.20
2024-02-28T19:51:44.071Z,85.10
2024-02-28T19:54:49.591Z,85.10
2024-02-28T19:57:57.213Z,85.10
2024-02-28T20:01:02.796Z,85.10
2024-02-28T20:04:11.086Z,85.20
2024-02-28T20:07:19.255Z,85.10
2024-02-28T20:10:27.438Z,85.10
2024-02-28T20:13:32.977Z,85.10
2024-02-28T20:16:41.367Z,85.10
2024-02-28T20:19:47.556Z,85.10
2024-02-28T20:22:57.709Z,85.00
2024-02-28T20:26:04.750Z,85.00
2024-02-28T20:29:12.262Z,85.60
2024-02-28T20:32:17.743Z,85.00
2024-02-28T20:35:25.442Z,85.00
2024-02-28T20:38:35.147Z,84.90
2024-02-28T20:41:42.831Z,84.90
2024-02-28T20:44:48.358Z,85.00
2024-02-28T20:47:57.850Z,84.90
2024-02-28T20:51:03.615Z,84.80
2024-02-28T20:54:13.841Z,84.80
2024-02-28T20:57:19.398Z,84.70
2024-02-28T21:00:28.373Z,84.70
2024-02-28T21:03:33.956Z,84.70
2024-02-28T21:06:41.525Z,84.70
2024-02-28T21:09:51.381Z,84.70
2024-02-28T21:12:58.987Z,84.60
2024-02-28T21:16:04.612Z,84.70
2024-02-28T21:19:12.744Z,84.60
2024-02-28T21:22:18.262Z,84.70
2024-02-28T21:25:28.573Z,84.70
2024-02-28T21:28:34.089Z,85.30
2024-02-28T21:31:41.571Z,84.70
2024-02-28T21:34:47.080Z,84.70
2024-02-28T21:37:54.627Z,84.70
2024-02-28T21:41:03.269Z,84.60
2024-02-28T21:44:10.776Z,84.70
2024-02-28T21:47:16.985Z,84.70
2024-02-28T21:50:24.813Z,84.80
2024-02-28T21:53:30.420Z,84.80
2024-02-28T21:56:42.088Z,84.90
2024-02-28T21:59:49.790Z,84.90
2024-02-28T22:02:59.136Z,85.00
2024-02-28T22:06:06.374Z,85.00
2024-02-28T22:09:15.219Z,85.00
2024-02-28T22:12:23.335Z,85.00
2024-02-28T22:15:30.845Z,85.00
2024-02-28T22:18:36.377Z,85.00
2024-02-28T22:21:43.959Z,85.00
2024-02-28T22:24:49.475Z,85.00
2024-02-28T22:27:59.627Z,85.00
2024-02-28T22:31:05.344Z,85.00
2024-02-28T22:34:12.973Z,84.90
2024-02-28T22:37:18.681Z,84.90
2024-02-28T22:40:26.218Z,84.80
2024-02-28T22:43:34.349Z,84.80
2024-02-28T22:46:41.864Z,84.80
2024-02-28T22:49:47.381Z,84.80
2024-02-28T22:52:54.860Z,85.30
2024-02-28T22:56:00.530Z,84.70
2024-02-28T22:59:10.707Z,84.60
2024-02-28T23:02:16.202Z,85.20
2024-02-28T23:05:29.768Z,84.60
2024-02-28T23:08:35.400Z,84.50
2024-02-28T23:11:43.510Z,84.50
2024-02-28T23:14:53.596Z,84.70
2024-02-28T23:18:01.799Z,84.40
2024-02-28T23:21:07.829Z,84.40
2024-02-28T23:24:15.548Z,84.30
2024-02-28T23:27:20.993Z,84.30
2024-02-28T23:30:31.131Z,84.20
2024-02-28T23:33:36.699Z,84.20
2024-02-28T23:36:44.269Z,84.30
2024-02-28T23:39:49.998Z,84.30
2024-02-28T23:42:57.606Z,84.30
2024-02-28T23:46:06.240Z,84.30
2024-02-28T23:49:13.739Z,84.40
2024-02-28T23:52:19.287Z,84.40
2024-02-28T23:55:26.763Z,84.40
2024-02-28T23:58:32.314Z,84.40
